Tuntutuliak, Alaska
Current Conditions -  °F | °C
As of 1:26 PM on Monday 20 Oct 2014 (Local Time) from PANA Reporting Station
Light Snow Light Snow  
Wind Chill: 17°   Ceiling: 700
Heat Index: 28°   Visibility: 5mi
Dew Point: 27°   Wind: 14mph
Humidity: 93%   Direction: 350°N
Pressure: 29.19"   Gusts: NA
Location:  60.33°N, 162.74°W
Report Text: PANA 202126Z AUTO 35012KT 5SM -SN BR BKN007 BKN025 OVC033 M02/M03 A2919 RMK AO2 CIG 005V010 P0000 FZRANO
Loading
Personal Weather Stations






























Interactive Weather Map
Tropical Storm Tracking
New forecast layout! Learn more

10-Day Weather Forecast

Advertisements
Track Severe Weather on mobile